Terminal Aerodrome Forecast
Issued by NWS

Home | Current Version | Previous Version | Text Only | Print | Product List | Glossary On
Versions: 1 2 3 4 5 6 7 8 9 10 11 12 13 14
000
FTUS45 KVEF 262320
TAFVGT
TAF
KVGT 262320Z 2700/2724 19012G20KT P6SM VCTS SCT120CB BKN200
      TEMPO 2700/2703 VRB15G25KT -TSRA BKN100CB
     FM270300 17010KT P6SM VCTS BKN120CB PROB30 2709/2713 VRB15G25KT
      -TSRA BKN100CB
     FM271300 VRB06KT P6SM BKN120
     FM271800 13007KT P6SM SCT120 BKN150 PROB30 2720/2724 VRB15G25KT
      -TSRA BKN100CB=

USA.gov is the U.S. government's official web portal to all federal, state and local government web resources and services.